createdAt,value
2022-08-21T00:01:55.884Z,2.90
2022-08-21T00:04:29.246Z,3.27
2022-08-21T00:06:58.564Z,3.00
2022-08-21T00:09:27.155Z,2.37
2022-08-21T00:11:55.611Z,3.07
2022-08-21T00:14:24.280Z,3.00
2022-08-21T00:16:57.246Z,3.20
2022-08-21T00:19:29.164Z,2.77
2022-08-21T00:21:57.706Z,2.83
2022-08-21T00:24:27.862Z,3.23
2022-08-21T00:26:56.583Z,3.00
2022-08-21T00:29:25.304Z,3.30
2022-08-21T00:31:55.942Z,3.87
2022-08-21T00:34:24.412Z,3.20
2022-08-21T00:36:52.860Z,3.20
2022-08-21T00:39:21.436Z,2.93
2022-08-21T00:41:49.871Z,3.53
2022-08-21T00:44:18.409Z,3.43
2022-08-21T00:46:47.533Z,4.00
2022-08-21T00:49:17.484Z,3.67
2022-08-21T00:51:50.574Z,3.90
2022-08-21T00:54:20.487Z,4.13
2022-08-21T00:56:55.219Z,4.03
2022-08-21T00:59:25.265Z,3.67
2022-08-21T01:01:54.101Z,4.17
2022-08-21T01:04:24.857Z,3.70
2022-08-21T01:06:53.771Z,3.87
2022-08-21T01:09:22.223Z,3.90
2022-08-21T01:11:51.233Z,4.30
2022-08-21T01:14:20.598Z,4.40
2022-08-21T01:16:53.174Z,4.37
2022-08-21T01:19:24.840Z,4.20
2022-08-21T01:21:55.616Z,3.97
2022-08-21T01:24:24.491Z,4.50
2022-08-21T01:26:54.128Z,4.10
2022-08-21T01:29:32.572Z,4.47
2022-08-21T01:32:05.330Z,4.10
2022-08-21T01:34:35.808Z,4.13
2022-08-21T01:37:06.190Z,4.07
2022-08-21T01:39:35.785Z,4.20
2022-08-21T01:42:04.855Z,3.60
2022-08-21T01:44:33.557Z,3.60
2022-08-21T01:47:05.560Z,4.03
2022-08-21T01:49:34.032Z,4.07
2022-08-21T01:52:02.707Z,5.00
2022-08-21T01:54:32.653Z,4.20
2022-08-21T01:57:02.175Z,4.37
2022-08-21T01:59:31.383Z,3.77
2022-08-21T02:01:59.876Z,3.53
2022-08-21T02:04:28.396Z,4.37
2022-08-21T02:06:56.822Z,4.43
2022-08-21T02:09:25.321Z,4.27
2022-08-21T02:11:55.546Z,4.90
2022-08-21T02:14:32.025Z,4.33
2022-08-21T02:17:05.422Z,4.57
2022-08-21T02:19:40.413Z,4.33
2022-08-21T02:22:10.569Z,4.67
2022-08-21T02:24:54.348Z,4.33
2022-08-21T02:27:26.216Z,5.00
2022-08-21T02:29:56.649Z,4.57
2022-08-21T02:32:25.153Z,4.43
2022-08-21T02:34:53.733Z,4.33
2022-08-21T02:37:22.203Z,4.60
2022-08-21T02:39:50.945Z,4.30
2022-08-21T02:42:19.482Z,4.80
2022-08-21T02:44:49.352Z,4.27
2022-08-21T02:47:17.811Z,4.27
2022-08-21T02:49:46.323Z,3.83
2022-08-21T02:52:15.644Z,4.00
2022-08-21T02:54:44.101Z,3.80
2022-08-21T02:57:12.535Z,4.13
2022-08-21T02:59:41.707Z,3.87
2022-08-21T03:02:12.452Z,4.30
2022-08-21T03:04:46.010Z,4.87
2022-08-21T03:07:16.303Z,5.17
2022-08-21T03:09:45.614Z,4.37
2022-08-21T03:12:24.256Z,5.40
2022-08-21T03:14:52.763Z,4.80
2022-08-21T03:17:29.992Z,4.67
2022-08-21T03:19:59.116Z,4.87
2022-08-21T03:22:28.176Z,4.27
2022-08-21T03:24:59.660Z,4.27
2022-08-21T03:27:28.664Z,5.23
2022-08-21T03:29:58.728Z,5.70
2022-08-21T03:32:28.526Z,5.50
2022-08-21T03:34:56.981Z,6.17
2022-08-21T03:37:26.182Z,5.73
2022-08-21T03:39:55.043Z,5.27
2022-08-21T03:42:23.712Z,6.50
2022-08-21T03:44:52.684Z,5.20
2022-08-21T03:47:21.369Z,5.87
2022-08-21T03:49:51.380Z,4.90
2022-08-21T03:52:20.607Z,5.77
2022-08-21T03:54:49.303Z,6.33
2022-08-21T03:57:18.107Z,5.77
2022-08-21T03:59:47.247Z,5.90
2022-08-21T04:02:20.124Z,5.63
2022-08-21T04:04:48.581Z,6.13
2022-08-21T04:07:18.737Z,5.77
2022-08-21T04:09:47.403Z,5.80
2022-08-21T04:12:15.857Z,5.27
2022-08-21T04:14:44.301Z,5.80
2022-08-21T04:17:12.849Z,5.80
2022-08-21T04:19:41.285Z,6.43
2022-08-21T04:22:09.740Z,6.90
2022-08-21T04:24:39.816Z,6.43
2022-08-21T04:27:08.292Z,6.83
2022-08-21T04:29:39.954Z,7.10
2022-08-21T04:32:08.670Z,6.23
2022-08-21T04:34:37.356Z,7.43
2022-08-21T04:37:06.216Z,7.70
2022-08-21T04:39:34.722Z,7.40
2022-08-21T04:42:05.883Z,6.70
2022-08-21T04:44:34.396Z,7.57
2022-08-21T04:47:02.881Z,6.77
2022-08-21T04:49:32.020Z,7.10
2022-08-21T04:52:00.735Z,7.30
2022-08-21T04:54:29.602Z,6.87
2022-08-21T04:57:04.369Z,7.53
2022-08-21T04:59:43.739Z,7.33
2022-08-21T05:02:13.489Z,7.43
2022-08-21T05:04:47.736Z,6.77
2022-08-21T05:07:19.297Z,7.17
2022-08-21T05:10:09.691Z,7.03
2022-08-21T05:12:38.165Z,7.50
2022-08-21T05:15:09.154Z,6.77
2022-08-21T05:17:41.781Z,6.70
2022-08-21T05:20:11.636Z,6.73
2022-08-21T05:22:40.391Z,6.87
2022-08-21T05:25:10.858Z,6.87
2022-08-21T05:27:39.746Z,6.70
2022-08-21T05:30:13.773Z,7.23
2022-08-21T05:32:42.196Z,6.93
2022-08-21T05:35:12.193Z,6.30
2022-08-21T05:37:40.667Z,6.60
2022-08-21T05:40:21.618Z,6.23
2022-08-21T05:42:54.318Z,6.90
2022-08-21T05:45:41.235Z,5.97
2022-08-21T05:48:14.109Z,6.80
2022-08-21T05:50:42.898Z,7.33
2022-08-21T05:53:12.615Z,6.57
2022-08-21T05:55:45.767Z,7.30
2022-08-21T05:58:16.309Z,7.17
2022-08-21T06:00:48.570Z,6.70
2022-08-21T06:03:19.813Z,6.83
2022-08-21T06:05:48.769Z,6.80
2022-08-21T06:08:18.496Z,6.90
2022-08-21T06:10:47.471Z,6.70
2022-08-21T06:13:17.600Z,5.97
2022-08-21T06:15:47.912Z,6.63
2022-08-21T06:18:16.896Z,6.33
2022-08-21T06:20:45.353Z,6.03
2022-08-21T06:23:13.862Z,5.93
2022-08-21T06:25:42.372Z,6.23
2022-08-21T06:28:12.097Z,5.70
2022-08-21T06:30:41.506Z,5.27
2022-08-21T06:33:11.333Z,5.33
2022-08-21T06:35:41.502Z,4.60
2022-08-21T06:38:10.413Z,5.13
2022-08-21T06:40:43.745Z,5.17
2022-08-21T06:43:18.046Z,3.60
2022-08-21T06:45:47.023Z,4.63
2022-08-21T06:48:19.300Z,4.20
2022-08-21T06:50:48.727Z,4.23
2022-08-21T06:53:19.113Z,4.40
2022-08-21T06:55:48.338Z,4.03
2022-08-21T06:58:18.107Z,3.60
2022-08-21T07:00:49.988Z,4.23
2022-08-21T07:03:21.544Z,3.63
2022-08-21T07:05:50.393Z,3.80
2022-08-21T07:08:19.315Z,3.50
2022-08-21T07:10:48.672Z,4.07
2022-08-21T07:13:17.735Z,3.57
2022-08-21T07:15:46.720Z,3.57
2022-08-21T07:18:15.492Z,3.43
2022-08-21T07:20:45.613Z,3.77
2022-08-21T07:23:23.891Z,3.77
2022-08-21T07:25:52.475Z,3.90
2022-08-21T07:28:21.187Z,3.37
2022-08-21T07:30:54.139Z,3.03
2022-08-21T07:33:23.057Z,3.73
2022-08-21T07:35:52.955Z,3.70
2022-08-21T07:38:21.466Z,3.60
2022-08-21T07:40:53.006Z,3.33
2022-08-21T07:43:22.523Z,3.37
2022-08-21T07:45:51.260Z,3.90
2022-08-21T07:48:19.684Z,3.13
2022-08-21T07:50:48.216Z,3.73
2022-08-21T07:53:18.592Z,3.00
2022-08-21T07:55:47.113Z,2.83
2022-08-21T07:58:15.586Z,3.90
2022-08-21T08:00:44.047Z,2.93
2022-08-21T08:03:12.595Z,3.20
2022-08-21T08:05:41.010Z,2.97
2022-08-21T08:08:09.787Z,2.77
2022-08-21T08:10:40.752Z,3.50
2022-08-21T08:13:10.540Z,3.03
2022-08-21T08:15:39.302Z,3.33
2022-08-21T08:18:07.717Z,2.90
2022-08-21T08:20:36.299Z,3.10
2022-08-21T08:23:04.861Z,3.40
2022-08-21T08:25:36.320Z,3.53
2022-08-21T08:28:16.154Z,2.73
2022-08-21T08:30:46.585Z,3.20
2022-08-21T08:33:15.591Z,3.80
2022-08-21T08:35:46.590Z,3.70
2022-08-21T08:38:19.503Z,2.93
2022-08-21T08:40:55.531Z,2.80
2022-08-21T08:43:25.374Z,3.65
2022-08-21T08:45:58.331Z,2.67
2022-08-21T08:48:40.868Z,2.20
2022-08-21T08:51:16.936Z,2.90
2022-08-21T08:53:53.043Z,2.30
2022-08-21T08:56:28.436Z,2.60
2022-08-21T08:59:02.605Z,2.40
2022-08-21T09:01:36.733Z,2.58
2022-08-21T09:04:08.152Z,3.03
2022-08-21T09:06:47.592Z,2.42
2022-08-21T09:09:27.773Z,2.22
2022-08-21T09:12:03.438Z,2.50
2022-08-21T09:14:49.446Z,2.35
2022-08-21T09:17:31.475Z,2.15
2022-08-21T09:20:12.777Z,2.13
2022-08-21T09:22:50.620Z,2.33
2022-08-21T09:25:24.326Z,2.35
2022-08-21T09:27:52.853Z,1.73
2022-08-21T09:30:29.152Z,2.20
2022-08-21T09:32:57.910Z,2.10
2022-08-21T09:35:27.141Z,2.03
2022-08-21T09:37:57.725Z,1.70
2022-08-21T09:40:33.734Z,2.28
2022-08-21T09:43:04.574Z,2.00
2022-08-21T09:45:35.929Z,2.15
2022-08-21T09:48:13.016Z,1.80
2022-08-21T09:50:42.512Z,2.30
2022-08-21T09:53:19.466Z,2.28
2022-08-21T09:56:11.853Z,2.28
2022-08-21T09:58:45.626Z,1.80
2022-08-21T10:01:19.580Z,2.00
2022-08-21T10:03:51.788Z,1.67
2022-08-21T10:06:27.479Z,1.52
2022-08-21T10:09:07.021Z,2.38
2022-08-21T10:11:36.728Z,2.10
2022-08-21T10:14:15.719Z,2.13
2022-08-21T10:16:57.209Z,1.65
2022-08-21T10:19:33.552Z,1.90
2022-08-21T10:22:11.215Z,2.17
2022-08-21T10:24:50.416Z,1.58
2022-08-21T10:27:30.136Z,1.88
2022-08-21T10:30:03.432Z,1.33
2022-08-21T10:32:49.301Z,1.27
2022-08-21T10:35:25.198Z,2.28
2022-08-21T10:38:10.185Z,1.85
2022-08-21T10:40:46.952Z,1.95
2022-08-21T10:43:25.182Z,2.30
2022-08-21T10:46:00.616Z,2.50
2022-08-21T10:48:45.811Z,2.17
2022-08-21T10:51:28.910Z,1.63
2022-08-21T10:54:07.717Z,1.30
2022-08-21T10:56:40.534Z,2.08
2022-08-21T10:59:26.660Z,1.50
2022-08-21T11:01:59.712Z,1.38
2022-08-21T11:04:46.326Z,1.67
2022-08-21T11:07:24.741Z,1.30
2022-08-21T11:09:56.188Z,1.20
2022-08-21T11:12:33.308Z,1.27
2022-08-21T11:15:06.947Z,1.50
2022-08-21T11:17:40.891Z,1.00
2022-08-21T11:20:17.309Z,0.95
2022-08-21T11:22:55.038Z,1.00
2022-08-21T11:25:33.716Z,1.02
2022-08-21T11:28:20.683Z,0.90
2022-08-21T11:30:59.988Z,1.48
2022-08-21T11:33:49.669Z,1.30
2022-08-21T11:36:30.530Z,1.23
2022-08-21T11:39:04.581Z,0.98
2022-08-21T11:41:38.291Z,0.98
2022-08-21T11:44:15.331Z,0.98
2022-08-21T11:46:51.392Z,1.17
2022-08-21T11:49:40.877Z,1.90
2022-08-21T11:52:18.428Z,2.00
2022-08-21T11:54:51.943Z,1.00
2022-08-21T11:57:24.747Z,1.00
2022-08-21T12:00:01.049Z,1.27
2022-08-21T12:02:35.630Z,1.30
2022-08-21T12:05:09.149Z,1.20
2022-08-21T12:07:41.297Z,1.75
2022-08-21T12:10:12.922Z,1.60
2022-08-21T12:12:42.998Z,1.30
2022-08-21T12:15:27.191Z,1.50
2022-08-21T12:17:59.435Z,1.40
2022-08-21T12:20:50.141Z,1.40
2022-08-21T12:23:28.739Z,1.52
2022-08-21T12:26:21.900Z,1.60
2022-08-21T12:28:50.678Z,1.55
2022-08-21T12:31:21.379Z,1.73
2022-08-21T12:33:59.674Z,1.50
2022-08-21T12:36:38.901Z,1.73
2022-08-21T12:39:15.569Z,1.10
2022-08-21T12:41:51.054Z,1.70
2022-08-21T12:44:25.179Z,1.50
2022-08-21T12:46:59.035Z,2.13
2022-08-21T12:49:35.019Z,1.33
2022-08-21T12:52:07.608Z,1.58
2022-08-21T12:54:43.040Z,1.73
2022-08-21T12:57:20.959Z,1.42
2022-08-21T12:59:55.911Z,1.65
2022-08-21T13:02:28.301Z,1.40
2022-08-21T13:04:57.770Z,1.70
2022-08-21T13:07:33.099Z,1.15
2022-08-21T13:10:07.394Z,1.25
2022-08-21T13:12:37.564Z,1.65
2022-08-21T13:15:09.102Z,1.50
2022-08-21T13:17:41.531Z,1.20
2022-08-21T13:20:20.503Z,1.45
2022-08-21T13:22:49.241Z,2.45
2022-08-21T13:25:22.273Z,2.38
2022-08-21T13:28:01.324Z,1.98
2022-08-21T13:30:31.440Z,1.77
2022-08-21T13:33:03.955Z,1.05
2022-08-21T13:35:38.616Z,1.38
2022-08-21T13:38:09.027Z,1.52
2022-08-21T13:40:48.040Z,1.15
2022-08-21T13:43:21.051Z,1.10
2022-08-21T13:45:52.409Z,1.50
2022-08-21T13:48:22.071Z,1.58
2022-08-21T13:50:51.076Z,1.23
2022-08-21T13:53:25.693Z,0.93
2022-08-21T13:56:00.412Z,4.20
2022-08-21T13:58:31.362Z,1.30
2022-08-21T14:01:04.926Z,1.45
2022-08-21T14:03:40.166Z,1.27
2022-08-21T14:06:14.596Z,1.90
2022-08-21T14:08:49.528Z,0.65
2022-08-21T14:11:19.779Z,1.20
2022-08-21T14:13:51.350Z,1.40
2022-08-21T14:16:22.722Z,1.38
2022-08-21T14:18:54.539Z,1.48
2022-08-21T14:21:33.195Z,1.25
2022-08-21T14:24:05.296Z,1.75
2022-08-21T14:26:37.000Z,1.20
2022-08-21T14:29:10.870Z,1.63
2022-08-21T14:31:43.395Z,1.17
2022-08-21T14:34:19.366Z,1.08
2022-08-21T14:36:49.524Z,1.05
2022-08-21T14:39:18.336Z,2.38
2022-08-21T14:41:49.370Z,4.30
2022-08-21T14:44:19.676Z,54.55
2022-08-21T14:46:55.550Z,100.80
2022-08-21T14:49:28.283Z,20.38
2022-08-21T14:51:58.548Z,14.25
2022-08-21T14:54:30.679Z,106.13
2022-08-21T14:57:03.353Z,432.45
2022-08-21T14:59:33.666Z,319.05
2022-08-21T15:02:02.625Z,38.05
2022-08-21T15:04:31.252Z,58.50
2022-08-21T15:06:59.793Z,52.03
2022-08-21T15:09:28.352Z,39.50
2022-08-21T15:12:00.501Z,4.78
2022-08-21T15:14:32.636Z,3.03
2022-08-21T15:17:01.314Z,1.90
2022-08-21T15:19:30.588Z,1.58
2022-08-21T15:21:59.385Z,2.00
2022-08-21T15:24:28.066Z,1.20
2022-08-21T15:26:57.473Z,1.33
2022-08-21T15:29:33.511Z,1.27
2022-08-21T15:32:05.809Z,2.00
2022-08-21T15:34:34.225Z,1.50
2022-08-21T15:37:02.675Z,1.60
2022-08-21T15:39:33.783Z,1.40
2022-08-21T15:42:11.042Z,1.40
2022-08-21T15:44:41.297Z,1.73
2022-08-21T15:47:13.907Z,1.30
2022-08-21T15:49:45.675Z,1.83
2022-08-21T15:52:14.781Z,1.63
2022-08-21T15:54:43.472Z,1.13
2022-08-21T15:57:13.932Z,1.40
2022-08-21T15:59:44.722Z,2.00
2022-08-21T16:02:17.007Z,2.03
2022-08-21T16:04:45.851Z,1.50
2022-08-21T16:07:14.357Z,1.60
2022-08-21T16:09:42.848Z,1.20
2022-08-21T16:12:14.861Z,1.13
2022-08-21T16:14:43.338Z,1.67
2022-08-21T16:17:11.904Z,1.43
2022-08-21T16:19:41.781Z,2.43
2022-08-21T16:22:10.413Z,1.87
2022-08-21T16:24:38.879Z,1.87
2022-08-21T16:27:09.182Z,2.50
2022-08-21T16:29:39.465Z,2.03
2022-08-21T16:32:09.283Z,1.37
2022-08-21T16:34:39.481Z,1.90
2022-08-21T16:37:09.947Z,1.33
2022-08-21T16:39:38.485Z,1.70
2022-08-21T16:42:07.949Z,1.23
2022-08-21T16:44:37.236Z,1.83
2022-08-21T16:47:06.203Z,1.40
2022-08-21T16:49:34.636Z,1.23
2022-08-21T16:52:03.281Z,1.57
2022-08-21T16:54:33.528Z,1.60
2022-08-21T16:57:02.316Z,1.17
2022-08-21T16:59:30.940Z,1.37
2022-08-21T17:01:59.430Z,1.17
2022-08-21T17:04:28.486Z,1.10
2022-08-21T17:06:56.943Z,1.20
2022-08-21T17:09:25.373Z,1.70
2022-08-21T17:11:55.177Z,1.67
2022-08-21T17:14:25.074Z,1.77
2022-08-21T17:16:56.972Z,1.23
2022-08-21T17:19:25.494Z,0.97
2022-08-21T17:21:53.951Z,1.00
2022-08-21T17:24:22.912Z,1.20
2022-08-21T17:26:53.980Z,1.50
2022-08-21T17:29:29.040Z,1.27
2022-08-21T17:31:58.285Z,1.50
2022-08-21T17:34:31.091Z,1.77
2022-08-21T17:37:00.714Z,1.90
2022-08-21T17:39:29.175Z,1.70
2022-08-21T17:42:01.394Z,1.50
2022-08-21T17:44:31.609Z,1.63
2022-08-21T17:47:00.092Z,1.50
2022-08-21T17:49:28.531Z,1.57
2022-08-21T17:51:57.071Z,1.20
2022-08-21T17:54:25.743Z,1.63
2022-08-21T17:56:56.067Z,1.07
2022-08-21T17:59:25.608Z,1.37
2022-08-21T18:02:01.230Z,1.27
2022-08-21T18:04:30.353Z,1.93
2022-08-21T18:06:59.112Z,1.50
2022-08-21T18:09:28.431Z,1.70
2022-08-21T18:11:58.199Z,1.73
2022-08-21T18:14:30.904Z,2.00
2022-08-21T18:17:01.392Z,1.37
2022-08-21T18:19:29.859Z,1.80
2022-08-21T18:22:02.622Z,1.57
2022-08-21T18:24:32.829Z,1.90
2022-08-21T18:27:01.580Z,1.70
2022-08-21T18:29:30.561Z,1.50
2022-08-21T18:32:01.743Z,1.40
2022-08-21T18:34:34.203Z,2.00
2022-08-21T18:37:03.196Z,1.60
2022-08-21T18:39:37.280Z,2.17
2022-08-21T18:42:10.269Z,2.20
2022-08-21T18:44:40.006Z,1.50
2022-08-21T18:47:14.318Z,2.13
2022-08-21T18:49:43.187Z,1.50
2022-08-21T18:52:17.902Z,1.67
2022-08-21T18:54:49.680Z,1.90
2022-08-21T18:57:19.382Z,1.77
2022-08-21T18:59:49.547Z,1.40
2022-08-21T19:02:19.375Z,1.53
2022-08-21T19:04:48.066Z,1.60
2022-08-21T19:07:18.583Z,2.77
2022-08-21T19:10:07.607Z,1.90
2022-08-21T19:12:36.682Z,1.47
2022-08-21T19:15:10.391Z,2.10
2022-08-21T19:17:41.519Z,2.50
2022-08-21T19:20:25.119Z,3.17
2022-08-21T19:22:56.258Z,2.53
2022-08-21T19:25:33.870Z,2.90
2022-08-21T19:28:03.953Z,2.73
2022-08-21T19:30:41.717Z,2.57
2022-08-21T19:33:23.213Z,2.50
2022-08-21T19:35:52.814Z,1.60
2022-08-21T19:38:21.773Z,2.00
2022-08-21T19:40:50.659Z,1.93
2022-08-21T19:43:22.541Z,1.97
2022-08-21T19:45:54.983Z,1.60
2022-08-21T19:48:26.123Z,1.97
2022-08-21T19:50:54.835Z,2.07
2022-08-21T19:53:23.265Z,2.03
2022-08-21T19:55:51.764Z,2.07
2022-08-21T19:58:32.952Z,1.87
2022-08-21T20:01:01.549Z,1.93
2022-08-21T20:03:31.384Z,2.20
2022-08-21T20:06:00.173Z,2.30
2022-08-21T20:08:28.636Z,1.87
2022-08-21T20:11:00.741Z,1.60
2022-08-21T20:13:34.191Z,2.23
2022-08-21T20:16:05.757Z,1.60
2022-08-21T20:18:36.892Z,2.03
2022-08-21T20:21:10.806Z,1.60
2022-08-21T20:23:43.126Z,1.87
2022-08-21T20:26:18.375Z,2.30
2022-08-21T20:28:50.280Z,1.97
2022-08-21T20:31:20.146Z,2.43
2022-08-21T20:33:51.047Z,2.17
2022-08-21T20:36:21.135Z,2.33
2022-08-21T20:38:51.756Z,2.03
2022-08-21T20:44:13.411Z,1.80
2022-08-21T20:46:42.025Z,2.40
2022-08-21T20:49:16.367Z,2.40
2022-08-21T20:51:47.616Z,2.00
2022-08-21T20:54:24.001Z,2.67
2022-08-21T20:56:57.125Z,2.00
2022-08-21T20:59:42.090Z,2.00
2022-08-21T21:02:26.181Z,2.10
2022-08-21T21:05:01.878Z,2.77
2022-08-21T21:07:37.947Z,2.40
2022-08-21T21:10:11.887Z,1.90
2022-08-21T21:12:48.829Z,2.30
2022-08-21T21:15:28.196Z,2.10
2022-08-21T21:18:07.848Z,2.00
2022-08-21T21:20:47.779Z,2.53
2022-08-21T21:23:23.340Z,2.20
2022-08-21T21:26:00.199Z,2.33
2022-08-21T21:28:38.511Z,2.57
2022-08-21T21:31:07.580Z,2.20
2022-08-21T21:33:36.149Z,2.33
2022-08-21T21:36:20.376Z,2.40
2022-08-21T21:38:54.497Z,2.70
2022-08-21T21:41:32.543Z,2.50
2022-08-21T21:44:24.072Z,2.93
2022-08-21T21:47:01.748Z,2.70
2022-08-21T21:49:49.556Z,2.90
2022-08-21T21:52:38.934Z,2.83
2022-08-21T21:58:47.342Z,2.33
2022-08-21T22:01:21.924Z,3.10
2022-08-21T22:04:00.691Z,2.50
2022-08-21T22:06:40.444Z,3.07
2022-08-21T22:09:16.698Z,2.60
2022-08-21T22:11:58.912Z,2.83
2022-08-21T22:14:35.395Z,2.33
2022-08-21T22:17:10.293Z,2.70
2022-08-21T22:19:42.948Z,2.43
2022-08-21T22:22:17.267Z,2.80
2022-08-21T22:24:51.364Z,2.43
2022-08-21T22:27:23.631Z,2.80
2022-08-21T22:29:55.075Z,2.93
2022-08-21T22:32:27.398Z,3.07
2022-08-21T22:35:09.551Z,3.00
2022-08-21T22:37:59.823Z,2.77
2022-08-21T22:40:32.370Z,3.70
2022-08-21T22:43:07.280Z,3.40
2022-08-21T22:46:01.999Z,2.90
2022-08-21T22:48:33.275Z,3.23
2022-08-21T22:51:05.584Z,3.23
2022-08-21T22:53:37.319Z,3.13
2022-08-21T22:56:28.276Z,3.07
2022-08-21T22:59:00.536Z,2.97
2022-08-21T23:01:40.275Z,3.07
2022-08-21T23:04:18.395Z,2.57
2022-08-21T23:06:52.609Z,2.90
2022-08-21T23:09:31.587Z,3.40
2022-08-21T23:12:21.727Z,2.90
2022-08-21T23:14:54.728Z,2.80
2022-08-21T23:17:40.351Z,3.20
2022-08-21T23:20:16.995Z,2.60
2022-08-21T23:23:03.507Z,2.70
2022-08-21T23:25:59.287Z,2.63
2022-08-21T23:28:43.655Z,3.70
2022-08-21T23:31:20.029Z,2.90
2022-08-21T23:34:11.684Z,2.93
2022-08-21T23:37:16.032Z,2.43
2022-08-21T23:39:53.968Z,3.37
2022-08-21T23:42:34.148Z,3.10
2022-08-21T23:45:17.798Z,3.10
2022-08-21T23:47:52.582Z,3.40
2022-08-21T23:50:26.940Z,3.47
2022-08-21T23:53:11.627Z,3.23
2022-08-21T23:56:04.940Z,3.10
2022-08-21T23:58:43.179Z,3.57
